createdAt,value
2023-03-16T00:00:38.135Z,103.55
2023-03-16T00:03:22.143Z,93.70
2023-03-16T00:05:53.477Z,74.18
2023-03-16T00:08:23.292Z,69.45
2023-03-16T00:10:54.263Z,59.55
2023-03-16T00:13:25.550Z,50.90
2023-03-16T00:15:57.260Z,55.42
2023-03-16T00:18:29.998Z,56.88
2023-03-16T00:21:02.253Z,54.67
2023-03-16T00:23:36.270Z,58.53
2023-03-16T00:26:07.495Z,54.38
2023-03-16T00:28:37.628Z,55.38
2023-03-16T00:31:08.926Z,59.78
2023-03-16T00:33:39.957Z,55.30
2023-03-16T00:36:11.493Z,55.22
2023-03-16T00:38:45.252Z,47.53
2023-03-16T00:41:16.307Z,52.63
2023-03-16T00:43:46.519Z,49.38
2023-03-16T00:46:18.736Z,64.95
2023-03-16T00:48:49.791Z,70.63
2023-03-16T00:51:20.796Z,89.47
2023-03-16T00:53:50.885Z,83.20
2023-03-16T00:56:20.447Z,62.65
2023-03-16T00:58:50.866Z,49.65
2023-03-16T01:01:21.160Z,44.40
2023-03-16T01:03:52.589Z,45.05
2023-03-16T01:06:22.254Z,23.40
2023-03-16T01:08:52.489Z,26.88
2023-03-16T01:11:24.122Z,34.72
2023-03-16T01:13:55.354Z,61.72
2023-03-16T01:16:24.876Z,52.95
2023-03-16T01:18:57.733Z,46.10
2023-03-16T01:21:27.364Z,47.75
2023-03-16T01:23:57.282Z,45.72
2023-03-16T01:26:26.838Z,47.28
2023-03-16T01:28:56.400Z,54.85
2023-03-16T01:31:26.004Z,60.10
2023-03-16T01:33:57.060Z,50.67
2023-03-16T01:36:29.973Z,43.63
2023-03-16T01:39:04.200Z,42.33
2023-03-16T01:41:38.504Z,23.90
2023-03-16T01:44:09.022Z,25.10
2023-03-16T01:46:38.570Z,18.15
2023-03-16T01:49:13.742Z,19.25
2023-03-16T01:51:47.848Z,18.98
2023-03-16T01:54:24.828Z,21.10
2023-03-16T01:57:01.602Z,19.65
2023-03-16T01:59:36.999Z,25.90
2023-03-16T02:02:07.689Z,12.70
2023-03-16T02:04:53.418Z,19.00
2023-03-16T02:07:27.088Z,11.30
2023-03-16T02:09:59.524Z,10.52
2023-03-16T02:12:29.665Z,12.55
2023-03-16T02:15:01.075Z,11.23
2023-03-16T02:17:33.336Z,9.75
2023-03-16T02:20:23.129Z,10.85
2023-03-16T02:22:56.629Z,16.33
2023-03-16T02:25:32.798Z,16.60
2023-03-16T02:30:43.012Z,13.13
2023-03-16T02:33:13.416Z,11.32
2023-03-16T02:35:43.162Z,10.40
2023-03-16T02:38:13.174Z,13.18
2023-03-16T02:40:59.390Z,13.63
2023-03-16T02:43:34.382Z,21.55
2023-03-16T02:46:28.710Z,16.05
2023-03-16T02:49:04.348Z,23.55
2023-03-16T02:51:34.027Z,19.60
2023-03-16T02:54:03.414Z,15.55
2023-03-16T02:56:36.123Z,26.02
2023-03-16T02:59:05.697Z,16.80
2023-03-16T03:01:36.896Z,13.02
2023-03-16T03:04:07.360Z,15.93
2023-03-16T03:06:37.119Z,20.58
2023-03-16T03:09:06.932Z,16.00
2023-03-16T03:11:36.675Z,17.13
2023-03-16T03:14:06.613Z,12.15
2023-03-16T03:16:38.505Z,14.35
2023-03-16T03:19:07.842Z,11.57
2023-03-16T03:21:40.621Z,14.65
2023-03-16T03:24:11.045Z,14.70
2023-03-16T03:26:40.745Z,20.88
2023-03-16T03:29:16.821Z,13.82
2023-03-16T03:36:11.394Z,13.10
2023-03-16T03:38:42.546Z,10.35
2023-03-16T03:41:12.982Z,11.95
2023-03-16T03:43:42.663Z,13.27
2023-03-16T03:46:17.579Z,14.13
2023-03-16T03:48:47.017Z,14.38
2023-03-16T03:51:18.281Z,13.38
2023-03-16T03:53:54.731Z,13.45
2023-03-16T03:59:14.991Z,9.85
2023-03-16T04:02:03.330Z,15.90
2023-03-16T04:04:43.400Z,11.35
2023-03-16T04:07:16.240Z,14.27
2023-03-16T04:09:47.126Z,17.45
2023-03-16T04:12:26.856Z,21.95
2023-03-16T04:14:56.751Z,12.38
2023-03-16T04:17:27.674Z,16.83
2023-03-16T04:20:00.460Z,15.82
2023-03-16T04:22:31.422Z,20.58
2023-03-16T04:25:03.022Z,15.35
2023-03-16T04:27:36.865Z,27.63
2023-03-16T04:30:11.399Z,19.50
2023-03-16T04:32:44.611Z,19.52
2023-03-16T04:35:18.181Z,17.17
2023-03-16T04:37:53.861Z,33.80
2023-03-16T04:40:28.293Z,20.05
2023-03-16T04:43:06.136Z,19.70
2023-03-16T04:45:36.994Z,22.00
2023-03-16T04:48:07.330Z,18.85
2023-03-16T04:50:37.136Z,30.08
2023-03-16T04:53:08.967Z,18.48
2023-03-16T04:55:38.900Z,17.00
2023-03-16T04:58:09.517Z,25.52
2023-03-16T05:00:41.648Z,27.25
2023-03-16T05:03:24.802Z,13.60
2023-03-16T05:05:54.251Z,24.30
2023-03-16T05:08:26.014Z,25.75
2023-03-16T05:10:59.109Z,22.20
2023-03-16T05:13:32.478Z,23.17
2023-03-16T05:16:02.949Z,17.52
2023-03-16T05:18:36.515Z,23.50
2023-03-16T05:21:06.093Z,21.60
2023-03-16T05:23:49.750Z,29.10
2023-03-16T05:26:19.437Z,17.95
2023-03-16T05:28:49.710Z,24.50
2023-03-16T05:31:20.836Z,24.67
2023-03-16T05:33:54.560Z,15.45
2023-03-16T05:36:24.927Z,14.60
2023-03-16T05:38:59.789Z,21.77
2023-03-16T05:41:34.881Z,21.73
2023-03-16T05:44:19.594Z,16.95
2023-03-16T05:47:01.435Z,19.73
2023-03-16T05:49:33.445Z,15.25
2023-03-16T05:52:06.096Z,26.50
2023-03-16T05:54:39.825Z,35.95
2023-03-16T05:57:12.119Z,20.95
2023-03-16T05:59:44.127Z,31.67
2023-03-16T06:02:14.488Z,26.45
2023-03-16T06:04:44.325Z,24.95
2023-03-16T06:07:13.700Z,24.67
2023-03-16T06:09:44.825Z,31.38
2023-03-16T06:12:17.736Z,26.85
2023-03-16T06:14:47.607Z,25.05
2023-03-16T06:17:17.750Z,61.30
2023-03-16T06:19:47.460Z,25.23
2023-03-16T06:22:16.722Z,18.65
2023-03-16T06:24:47.824Z,18.35
2023-03-16T06:27:18.678Z,22.25
2023-03-16T06:30:01.969Z,19.02
2023-03-16T06:32:32.159Z,17.13
2023-03-16T06:35:03.600Z,16.33
2023-03-16T06:37:34.338Z,22.15
2023-03-16T06:40:14.737Z,18.05
2023-03-16T06:42:46.320Z,14.57
2023-03-16T06:45:22.189Z,16.20
2023-03-16T06:47:52.647Z,15.63
2023-03-16T06:50:22.361Z,14.43
2023-03-16T06:52:52.006Z,14.55
2023-03-16T06:55:23.247Z,18.25
2023-03-16T06:57:52.602Z,16.55
2023-03-16T07:00:22.970Z,18.25
2023-03-16T07:02:53.171Z,14.60
2023-03-16T07:05:41.973Z,13.18
2023-03-16T07:08:12.191Z,14.35
2023-03-16T07:10:43.339Z,12.95
2023-03-16T07:13:14.967Z,16.13
2023-03-16T07:15:46.720Z,14.75
2023-03-16T07:18:16.603Z,14.32
2023-03-16T07:20:46.920Z,11.95
2023-03-16T07:28:13.276Z,11.20
2023-03-16T07:31:02.165Z,14.35
2023-03-16T07:33:37.268Z,8.40
2023-03-16T07:36:10.962Z,15.77
2023-03-16T07:38:47.556Z,19.52
2023-03-16T07:41:17.237Z,10.20
2023-03-16T07:43:49.501Z,10.68
2023-03-16T07:46:19.181Z,12.13
2023-03-16T07:48:50.417Z,15.27
2023-03-16T07:51:20.240Z,14.50
2023-03-16T07:53:52.501Z,11.18
2023-03-16T07:56:31.656Z,11.43
2023-03-16T07:59:14.842Z,14.20
2023-03-16T08:01:44.732Z,10.30
2023-03-16T08:04:14.608Z,8.10
2023-03-16T08:06:44.376Z,13.60
2023-03-16T08:09:15.620Z,8.35
2023-03-16T08:11:46.773Z,9.88
2023-03-16T08:14:17.935Z,15.52
2023-03-16T08:17:05.666Z,15.90
2023-03-16T08:19:36.110Z,11.00
2023-03-16T08:22:09.255Z,13.98
2023-03-16T08:24:43.297Z,10.43
2023-03-16T08:27:16.245Z,12.02
2023-03-16T08:29:54.171Z,11.10
2023-03-16T08:32:26.963Z,11.77
2023-03-16T08:34:58.988Z,12.10
2023-03-16T08:37:28.683Z,13.20
2023-03-16T08:40:00.499Z,8.00
2023-03-16T08:42:32.589Z,8.95
2023-03-16T08:45:12.223Z,8.23
2023-03-16T08:47:44.533Z,7.18
2023-03-16T08:50:16.658Z,8.13
2023-03-16T08:52:45.950Z,8.98
2023-03-16T08:55:16.293Z,6.90
2023-03-16T08:57:46.553Z,13.27
2023-03-16T09:00:18.521Z,7.20
2023-03-16T09:02:48.075Z,9.02
2023-03-16T09:05:18.465Z,4.05
2023-03-16T09:07:48.982Z,6.82
2023-03-16T09:10:19.058Z,7.80
2023-03-16T09:12:48.481Z,9.27
2023-03-16T09:15:21.036Z,7.18
2023-03-16T09:17:50.593Z,8.40
2023-03-16T09:20:26.502Z,18.20
2023-03-16T09:22:57.803Z,9.60
2023-03-16T09:25:28.178Z,4.60
2023-03-16T09:27:58.126Z,6.93
2023-03-16T09:30:29.792Z,6.85
2023-03-16T09:32:59.694Z,8.65
2023-03-16T09:35:34.391Z,9.32
2023-03-16T09:38:06.959Z,9.75
2023-03-16T09:40:41.520Z,7.75
2023-03-16T09:43:26.224Z,6.35
2023-03-16T09:46:13.134Z,5.75
2023-03-16T09:48:43.344Z,12.02
2023-03-16T09:51:21.782Z,4.55
2023-03-16T09:53:54.444Z,6.40
2023-03-16T09:56:32.115Z,7.25
2023-03-16T09:59:03.365Z,9.15
2023-03-16T10:01:48.336Z,12.00
2023-03-16T10:04:30.532Z,5.05
2023-03-16T10:07:14.029Z,4.57
2023-03-16T10:09:51.060Z,7.13
2023-03-16T10:12:23.304Z,6.28
2023-03-16T10:14:59.138Z,9.48
2023-03-16T10:17:37.497Z,10.88
2023-03-16T10:20:09.554Z,6.97
2023-03-16T10:22:43.350Z,6.05
2023-03-16T10:25:21.275Z,4.90
2023-03-16T10:27:53.116Z,4.13
2023-03-16T10:30:28.440Z,9.40
2023-03-16T10:33:05.535Z,9.35
2023-03-16T10:35:45.611Z,8.70
2023-03-16T10:38:38.746Z,6.15
2023-03-16T10:41:22.695Z,5.47
2023-03-16T10:43:55.584Z,8.00
2023-03-16T10:46:27.680Z,5.68
2023-03-16T10:49:01.384Z,6.32
2023-03-16T10:51:34.921Z,5.93
2023-03-16T10:54:14.359Z,3.33
2023-03-16T10:56:44.280Z,5.57
2023-03-16T10:59:28.424Z,5.53
2023-03-16T11:01:59.732Z,7.20
2023-03-16T11:04:34.602Z,6.75
2023-03-16T11:07:04.311Z,4.38
2023-03-16T11:09:37.332Z,4.80
2023-03-16T11:12:16.422Z,5.40
2023-03-16T11:14:47.058Z,3.05
2023-03-16T11:17:20.342Z,6.03
2023-03-16T11:19:55.845Z,8.48
2023-03-16T11:22:27.055Z,9.23
2023-03-16T11:25:04.382Z,4.57
2023-03-16T11:27:40.565Z,3.38
2023-03-16T11:30:20.346Z,4.65
2023-03-16T11:32:53.592Z,4.75
2023-03-16T11:35:31.584Z,4.28
2023-03-16T11:38:12.493Z,3.75
2023-03-16T11:40:50.973Z,5.72
2023-03-16T11:43:50.146Z,3.17
2023-03-16T11:46:24.682Z,7.22
2023-03-16T11:49:14.637Z,3.88
2023-03-16T11:51:50.098Z,4.43
2023-03-16T11:54:41.597Z,5.80
2023-03-16T11:57:29.354Z,3.65
2023-03-16T12:00:13.006Z,2.78
2023-03-16T12:03:02.190Z,4.85
2023-03-16T12:05:49.481Z,5.38
2023-03-16T12:08:50.127Z,4.63
2023-03-16T12:12:30.807Z,2.67
2023-03-16T12:16:11.091Z,3.28
2023-03-16T12:19:47.173Z,7.93
2023-03-16T12:23:23.564Z,3.70
2023-03-16T12:26:54.589Z,2.90
2023-03-16T12:30:39.757Z,3.83
2023-03-16T12:34:11.887Z,3.75
2023-03-16T12:37:55.286Z,6.10
2023-03-16T12:41:36.400Z,1.17
2023-03-16T12:45:16.635Z,1.25
2023-03-16T12:48:50.437Z,1.08
2023-03-16T12:52:19.477Z,6.40
2023-03-16T12:55:51.948Z,5.75
2023-03-16T12:59:25.804Z,13.95
2023-03-16T13:02:59.883Z,5.20
2023-03-16T13:06:36.314Z,6.80
2023-03-16T13:10:08.955Z,12.45
2023-03-16T13:13:50.931Z,5.10
2023-03-16T13:17:28.998Z,8.65
2023-03-16T13:21:14.551Z,4.45
2023-03-16T13:25:14.114Z,7.93
2023-03-16T13:28:47.182Z,8.77
2023-03-16T13:32:27.728Z,3.92
2023-03-16T13:36:00.321Z,6.10
2023-03-16T13:39:30.301Z,6.43
2023-03-16T13:43:03.264Z,5.70
2023-03-16T13:46:34.578Z,2.30
2023-03-16T13:50:02.776Z,3.90
2023-03-16T13:53:32.966Z,9.40
2023-03-16T13:57:04.299Z,12.77
2023-03-16T14:00:34.691Z,4.43
2023-03-16T14:04:13.918Z,21.35
2023-03-16T14:07:41.854Z,25.95
2023-03-16T14:11:11.700Z,8.50
2023-03-16T14:14:41.370Z,4.75
2023-03-16T14:18:16.604Z,3.60
2023-03-16T14:21:45.670Z,6.65
2023-03-16T14:25:23.711Z,6.80
2023-03-16T14:28:59.836Z,14.10
2023-03-16T14:32:35.381Z,11.63
2023-03-16T14:36:17.644Z,7.15
2023-03-16T14:39:47.023Z,11.00
2023-03-16T14:43:16.270Z,5.78
2023-03-16T14:46:44.298Z,9.30
2023-03-16T14:50:26.408Z,10.18
2023-03-16T14:53:56.219Z,10.18
2023-03-16T14:57:24.574Z,8.90
2023-03-16T15:00:53.916Z,8.45
2023-03-16T15:04:26.000Z,10.32
2023-03-16T15:07:56.488Z,12.35
2023-03-16T15:11:26.331Z,15.05
2023-03-16T15:15:12.121Z,13.32
2023-03-16T15:18:40.332Z,13.95
2023-03-16T15:22:13.665Z,23.58
2023-03-16T15:25:42.189Z,24.00
2023-03-16T15:29:12.961Z,38.75
2023-03-16T15:32:41.269Z,17.20
2023-03-16T15:36:14.920Z,45.30
2023-03-16T15:39:46.375Z,20.23
2023-03-16T15:43:16.843Z,8.25
2023-03-16T15:46:45.128Z,11.55
2023-03-16T15:50:14.089Z,14.82
2023-03-16T15:53:45.754Z,11.60
2023-03-16T15:57:14.956Z,14.15
2023-03-16T16:00:43.314Z,20.30
2023-03-16T16:04:14.572Z,23.63
2023-03-16T16:07:42.385Z,19.35
2023-03-16T16:11:16.766Z,14.98
2023-03-16T16:14:44.763Z,23.20
2023-03-16T16:18:25.434Z,32.58
2023-03-16T16:21:55.341Z,28.88
2023-03-16T16:25:25.997Z,38.28
2023-03-16T16:28:54.321Z,25.38
2023-03-16T16:32:24.807Z,35.95
2023-03-16T16:35:53.138Z,44.75
2023-03-16T16:39:22.006Z,45.80
2023-03-16T16:42:53.048Z,52.28
2023-03-16T16:46:24.111Z,50.80
2023-03-16T16:49:53.725Z,72.70
2023-03-16T16:53:21.908Z,33.20
2023-03-16T16:56:53.251Z,30.80
2023-03-16T17:00:23.828Z,25.77
2023-03-16T17:03:52.293Z,25.85
2023-03-16T17:07:21.160Z,27.52
2023-03-16T17:10:49.507Z,18.13
2023-03-16T17:14:27.647Z,19.60
2023-03-16T17:18:03.169Z,29.85
2023-03-16T17:21:32.118Z,21.63
2023-03-16T17:25:00.552Z,24.15
2023-03-16T17:32:01.960Z,19.67
2023-03-16T17:35:33.078Z,20.40
2023-03-16T17:39:03.239Z,38.30
2023-03-16T17:42:31.167Z,43.40
2023-03-16T17:49:30.833Z,33.78
2023-03-16T17:52:59.724Z,43.58
2023-03-16T17:56:30.085Z,40.05
2023-03-16T17:59:58.705Z,41.45
2023-03-16T18:03:39.596Z,47.53
2023-03-16T18:07:12.581Z,41.88
2023-03-16T18:10:40.963Z,48.03
2023-03-16T18:14:22.037Z,49.63
2023-03-16T18:17:52.972Z,52.33
2023-03-16T18:21:23.721Z,50.45
2023-03-16T18:24:53.191Z,56.80
2023-03-16T18:28:24.897Z,48.38
2023-03-16T18:31:55.307Z,65.15
2023-03-16T18:35:25.392Z,56.55
2023-03-16T18:38:53.888Z,53.40
2023-03-16T18:42:24.232Z,57.78
2023-03-16T18:45:54.804Z,47.97
2023-03-16T18:49:31.145Z,54.85
2023-03-16T18:52:59.549Z,48.97
2023-03-16T18:56:28.685Z,54.38
2023-03-16T18:59:57.865Z,56.63
2023-03-16T19:03:30.725Z,49.88
2023-03-16T19:07:01.489Z,57.20
2023-03-16T19:10:32.174Z,74.15
2023-03-16T19:14:00.251Z,53.70
2023-03-16T19:17:28.442Z,54.92
2023-03-16T19:20:56.992Z,61.40
2023-03-16T19:24:29.259Z,69.72
2023-03-16T19:27:58.257Z,59.50
2023-03-16T19:31:29.852Z,58.60
2023-03-16T19:34:58.591Z,45.03
2023-03-16T19:38:28.499Z,49.28
2023-03-16T19:41:59.025Z,47.38
2023-03-16T19:45:31.360Z,53.38
2023-03-16T19:48:59.655Z,52.85
2023-03-16T19:52:31.379Z,50.40
2023-03-16T19:56:00.612Z,52.40
2023-03-16T19:59:33.890Z,70.68
2023-03-16T20:03:03.090Z,63.85
2023-03-16T20:06:33.460Z,59.15
2023-03-16T20:10:03.489Z,51.85
2023-03-16T20:13:32.574Z,67.55
2023-03-16T20:17:01.164Z,68.78
2023-03-16T20:20:30.166Z,53.42
2023-03-16T20:23:58.534Z,57.22
2023-03-16T20:27:30.750Z,41.40
2023-03-16T20:31:00.106Z,46.88
2023-03-16T20:34:29.736Z,56.13
2023-03-16T20:37:58.007Z,39.65
2023-03-16T20:41:28.359Z,49.72
2023-03-16T20:44:59.236Z,68.97
2023-03-16T20:48:28.005Z,55.08
2023-03-16T20:51:58.225Z,52.17
2023-03-16T20:55:29.338Z,57.22
2023-03-16T20:58:59.098Z,67.10
2023-03-16T21:02:28.528Z,60.13
2023-03-16T21:05:59.623Z,63.95
2023-03-16T21:09:31.134Z,72.57
2023-03-16T21:12:59.782Z,82.93
2023-03-16T21:16:30.658Z,62.88
2023-03-16T21:19:59.476Z,65.85
2023-03-16T21:23:28.510Z,62.30
2023-03-16T21:26:58.260Z,62.50
2023-03-16T21:30:28.800Z,60.33
2023-03-16T21:33:59.907Z,63.78
2023-03-16T21:37:30.407Z,59.88
2023-03-16T21:40:58.714Z,62.85
2023-03-16T21:44:27.493Z,70.05
2023-03-16T21:47:56.327Z,68.28
2023-03-16T21:51:31.366Z,63.83
2023-03-16T21:54:59.951Z,65.07
2023-03-16T21:58:28.125Z,64.80
2023-03-16T22:02:01.843Z,64.85
2023-03-16T22:05:33.717Z,53.65
2023-03-16T22:09:04.249Z,63.70
2023-03-16T22:12:32.627Z,55.28
2023-03-16T22:16:02.419Z,53.70
2023-03-16T22:19:32.532Z,54.58
2023-03-16T22:23:02.993Z,64.30
2023-03-16T22:26:30.997Z,91.15
2023-03-16T22:29:59.874Z,88.28
2023-03-16T22:33:29.885Z,103.40
2023-03-16T22:36:59.721Z,99.07
2023-03-16T22:40:32.340Z,133.88
2023-03-16T22:44:02.914Z,93.70
2023-03-16T22:47:32.606Z,96.70
2023-03-16T22:51:02.522Z,106.47
2023-03-16T22:54:36.386Z,106.45
2023-03-16T22:58:07.963Z,104.72
2023-03-16T23:01:37.015Z,101.75
2023-03-16T23:05:19.289Z,85.10
2023-03-16T23:08:48.158Z,87.47
2023-03-16T23:12:22.137Z,86.68
2023-03-16T23:15:51.617Z,98.28
2023-03-16T23:19:25.125Z,92.03
2023-03-16T23:22:54.469Z,87.65
2023-03-16T23:26:25.425Z,85.97
2023-03-16T23:29:55.513Z,64.45
2023-03-16T23:33:23.631Z,70.53
2023-03-16T23:36:52.039Z,98.40
2023-03-16T23:40:20.866Z,93.22
2023-03-16T23:43:51.986Z,105.00
2023-03-16T23:47:20.821Z,62.63
2023-03-16T23:50:49.522Z,67.03
2023-03-16T23:54:20.209Z,64.40
2023-03-16T23:57:48.314Z,52.50
